This is the latest recevied weather packets stored in our database for station/object IU3OVK-13. If no packets are shown the sender has not sent any weather packets the latest 10 day(s).
| Time | Temp. | Humidity | Pressure | Rain* | Wind** | Luminosity | Snow |
|---|---|---|---|---|---|---|---|
| 1788106200 | 29.44° C | 99% | 1006.2 hPa | - | - | - | - |
| 1788105580 | 29.44° C | 99% | 1006.5 hPa | - | - | - | - |
| 1788104959 | 29.44° C | 99% | 1007 hPa | - | - | - | - |
| 1788104339 | 29.44° C | 99% | 1006.9 hPa | - | - | - | - |
| 1788103719 | 30° C | 99% | 1006.9 hPa | - | - | - | - |
| 1788103099 | 29.44° C | 99% | 1006.2 hPa | - | - | - | - |
| 1788102479 | 29.44° C | 99% | 1006.8 hPa | - | - | - | - |
| 1788101858 | 30° C | 99% | 1006.8 hPa | - | - | - | - |
| 1788100618 | 30° C | 99% | 1007 hPa | - | - | - | - |
| 1788099998 | 30° C | 99% | 1007 hPa | - | - | - | - |
| 1788099377 | 30.56° C | 99% | 1006.5 hPa | - | - | - | - |
| 1788098773 | 30° C | 99% | 1006.8 hPa | - | - | - | - |
| 1788096897 | 30° C | 99% | 1007.7 hPa | - | - | - | - |
| 1788096276 | 30° C | 99% | 1007.5 hPa | - | - | - | - |
| 1788095656 | 31.67° C | 99% | 1006.8 hPa | - | - | - | - |
| 1788095037 | 30.56° C | 99% | 1007.4 hPa | - | - | - | - |
| 1788094416 | 30.56° C | 99% | 1007 hPa | - | - | - | - |
| 1788093796 | 31.11° C | 99% | 1007.8 hPa | - | - | - | - |
| 1788093175 | 30° C | 99% | 1008.2 hPa | - | - | - | - |
| 1788092555 | 32.78° C | 94% | 1007.9 hPa | - | - | - | - |
| 1788091935 | 33.33° C | 90% | 1005 hPa | - | - | - | - |
| 1788090695 | 31.11° C | 96% | 1008.3 hPa | - | - | - | - |
| 1788090075 | 32.22° C | 96% | 1008.1 hPa | - | - | - | - |
| 1788089454 | 31.11° C | 93% | 1009.5 hPa | - | - | - | - |
| 1788088834 | 34.44° C | 83% | 1007.4 hPa | - | - | - | - |
* Rain since midnight (hover to see other rain measurements)
** Current wind speed in m/s (hover to see current wind gust speed)